sensor_id;sensor_type;location;lat;lon;timestamp;pressure;altitude;pressure_sealevel;temperature;humidity
40872;BME280;26591;43.264;26.940;2023-04-08T00:00:20;99338.63;;;8.06;58.76
40872;BME280;26591;43.264;26.940;2023-04-08T00:02:45;99337.63;;;8.17;58.89
40872;BME280;26591;43.264;26.940;2023-04-08T00:05:11;99348.88;;;8.19;58.69
40872;BME280;26591;43.264;26.940;2023-04-08T00:07:37;99351.06;;;8.23;58.14
40872;BME280;26591;43.264;26.940;2023-04-08T00:10:03;99350.56;;;8.10;58.13
40872;BME280;26591;43.264;26.940;2023-04-08T00:12:28;99353.44;;;8.17;58.88
40872;BME280;26591;43.264;26.940;2023-04-08T00:14:54;99343.66;;;7.79;58.58
40872;BME280;26591;43.264;26.940;2023-04-08T00:17:20;99344.09;;;7.85;59.10
40872;BME280;26591;43.264;26.940;2023-04-08T00:19:45;99344.22;;;7.93;59.27
40872;BME280;26591;43.264;26.940;2023-04-08T00:22:11;99346.28;;;7.79;59.72
40872;BME280;26591;43.264;26.940;2023-04-08T00:24:37;99336.75;;;7.78;58.92
40872;BME280;26591;43.264;26.940;2023-04-08T00:27:04;99333.97;;;7.90;59.19
40872;BME280;26591;43.264;26.940;2023-04-08T00:29:30;99341.31;;;7.86;59.25
40872;BME280;26591;43.264;26.940;2023-04-08T00:31:55;99343.63;;;7.99;58.95
40872;BME280;26591;43.264;26.940;2023-04-08T00:34:21;99338.66;;;7.96;58.41
40872;BME280;26591;43.264;26.940;2023-04-08T00:36:46;99338.25;;;7.91;59.37
40872;BME280;26591;43.264;26.940;2023-04-08T00:39:12;99333.69;;;7.93;58.79
40872;BME280;26591;43.264;26.940;2023-04-08T00:41:38;99329.50;;;7.81;58.99
40872;BME280;26591;43.264;26.940;2023-04-08T00:44:04;99332.47;;;7.77;59.42
40872;BME280;26591;43.264;26.940;2023-04-08T00:46:34;99331.16;;;7.91;59.06
40872;BME280;26591;43.264;26.940;2023-04-08T00:49:02;99339.06;;;7.91;59.06
40872;BME280;26591;43.264;26.940;2023-04-08T00:51:28;99338.97;;;7.73;59.03
40872;BME280;26591;43.264;26.940;2023-04-08T00:53:55;99338.28;;;7.71;59.65
40872;BME280;26591;43.264;26.940;2023-04-08T00:56:22;99329.91;;;7.96;59.39
40872;BME280;26591;43.264;26.940;2023-04-08T00:58:48;99330.47;;;7.89;58.73
40872;BME280;26591;43.264;26.940;2023-04-08T01:04:20;99323.81;;;7.95;59.38
40872;BME280;26591;43.264;26.940;2023-04-08T01:06:54;99316.25;;;8.20;58.88
40872;BME280;26591;43.264;26.940;2023-04-08T01:09:24;99317.09;;;8.10;58.62
40872;BME280;26591;43.264;26.940;2023-04-08T01:11:52;99314.59;;;8.19;58.62
40872;BME280;26591;43.264;26.940;2023-04-08T01:14:20;99310.91;;;8.39;58.20
40872;BME280;26591;43.264;26.940;2023-04-08T01:16:50;99314.09;;;8.43;57.34
40872;BME280;26591;43.264;26.940;2023-04-08T01:19:26;99316.56;;;8.54;56.83
40872;BME280;26591;43.264;26.940;2023-04-08T01:21:53;99326.09;;;8.65;57.21
40872;BME280;26591;43.264;26.940;2023-04-08T01:24:25;99323.84;;;8.70;56.59
40872;BME280;26591;43.264;26.940;2023-04-08T01:26:52;99321.81;;;8.64;56.88
40872;BME280;26591;43.264;26.940;2023-04-08T01:29:22;99318.09;;;8.47;56.70
40872;BME280;26591;43.264;26.940;2023-04-08T01:31:49;99316.03;;;8.51;56.91
40872;BME280;26591;43.264;26.940;2023-04-08T01:34:17;99316.31;;;8.38;56.94
40872;BME280;26591;43.264;26.940;2023-04-08T01:36:44;99314.22;;;8.42;57.17
40872;BME280;26591;43.264;26.940;2023-04-08T01:39:15;99316.84;;;8.51;56.57
40872;BME280;26591;43.264;26.940;2023-04-08T01:42:00;99320.19;;;8.53;56.83
40872;BME280;26591;43.264;26.940;2023-04-08T01:44:27;99320.44;;;8.60;56.14
40872;BME280;26591;43.264;26.940;2023-04-08T01:46:54;99322.91;;;8.62;56.67
40872;BME280;26591;43.264;26.940;2023-04-08T01:49:21;99325.66;;;8.70;55.98
40872;BME280;26591;43.264;26.940;2023-04-08T01:51:48;99322.31;;;8.30;56.69
40872;BME280;26591;43.264;26.940;2023-04-08T01:54:16;99322.00;;;8.43;56.44
40872;BME280;26591;43.264;26.940;2023-04-08T01:56:43;99323.09;;;8.40;56.85
40872;BME280;26591;43.264;26.940;2023-04-08T01:59:13;99322.31;;;8.30;56.63
40872;BME280;26591;43.264;26.940;2023-04-08T02:01:46;99320.78;;;8.37;57.21
40872;BME280;26591;43.264;26.940;2023-04-08T02:04:24;99312.56;;;8.40;56.86
40872;BME280;26591;43.264;26.940;2023-04-08T02:06:52;99322.38;;;8.58;56.73
40872;BME280;26591;43.264;26.940;2023-04-08T02:09:17;99315.56;;;8.65;56.48
40872;BME280;26591;43.264;26.940;2023-04-08T02:11:43;99322.91;;;8.62;56.37
40872;BME280;26591;43.264;26.940;2023-04-08T02:14:10;99321.69;;;8.56;55.70
40872;BME280;26591;43.264;26.940;2023-04-08T02:16:39;99319.34;;;8.53;56.52
40872;BME280;26591;43.264;26.940;2023-04-08T02:19:11;99309.09;;;8.40;56.11
40872;BME280;26591;43.264;26.940;2023-04-08T02:22:02;99318.06;;;8.57;55.49
40872;BME280;26591;43.264;26.940;2023-04-08T02:24:31;99309.03;;;8.22;56.15
40872;BME280;26591;43.264;26.940;2023-04-08T02:26:59;99314.22;;;8.04;57.04
40872;BME280;26591;43.264;26.940;2023-04-08T02:29:25;99320.59;;;8.11;56.79
40872;BME280;26591;43.264;26.940;2023-04-08T02:31:53;99314.72;;;8.17;57.14
40872;BME280;26591;43.264;26.940;2023-04-08T02:34:19;99312.09;;;8.17;56.83
40872;BME280;26591;43.264;26.940;2023-04-08T02:36:46;99308.78;;;8.15;56.86
40872;BME280;26591;43.264;26.940;2023-04-08T02:39:12;99307.25;;;8.13;57.35
40872;BME280;26591;43.264;26.940;2023-04-08T02:41:38;99302.63;;;7.77;57.66
40872;BME280;26591;43.264;26.940;2023-04-08T02:44:03;99304.50;;;8.04;57.97
40872;BME280;26591;43.264;26.940;2023-04-08T02:46:28;99301.13;;;8.22;57.05
40872;BME280;26591;43.264;26.940;2023-04-08T02:48:54;99308.78;;;8.15;57.49
40872;BME280;26591;43.264;26.940;2023-04-08T02:51:19;99306.09;;;8.25;57.62
40872;BME280;26591;43.264;26.940;2023-04-08T02:53:46;99302.81;;;8.23;57.59
40872;BME280;26591;43.264;26.940;2023-04-08T02:56:11;99314.59;;;8.19;57.15
40872;BME280;26591;43.264;26.940;2023-04-08T02:58:37;99307.75;;;8.26;56.83
40872;BME280;26591;43.264;26.940;2023-04-08T03:01:02;99314.44;;;8.20;56.79
40872;BME280;26591;43.264;26.940;2023-04-08T03:03:28;99311.09;;;8.28;57.38
40872;BME280;26591;43.264;26.940;2023-04-08T03:05:55;99316.34;;;8.28;57.61
40872;BME280;26591;43.264;26.940;2023-04-08T03:08:21;99305.22;;;7.97;57.86
40872;BME280;26591;43.264;26.940;2023-04-08T03:10:47;99310.59;;;8.05;57.54
40872;BME280;26591;43.264;26.940;2023-04-08T03:13:14;99312.69;;;8.01;58.08
40872;BME280;26591;43.264;26.940;2023-04-08T03:15:39;99315.34;;;8.01;58.01
40872;BME280;26591;43.264;26.940;2023-04-08T03:18:05;99310.47;;;8.06;58.19
40872;BME280;26591;43.264;26.940;2023-04-08T03:20:30;99312.00;;;8.09;58.37
40872;BME280;26591;43.264;26.940;2023-04-08T03:22:55;99320.00;;;8.17;57.68
40872;BME280;26591;43.264;26.940;2023-04-08T03:25:21;99318.50;;;8.05;58.01
40872;BME280;26591;43.264;26.940;2023-04-08T03:27:46;99318.38;;;8.06;58.33
40872;BME280;26591;43.264;26.940;2023-04-08T03:30:12;99331.38;;;8.28;57.92
40872;BME280;26591;43.264;26.940;2023-04-08T03:32:37;99326.34;;;8.34;57.61
40872;BME280;26591;43.264;26.940;2023-04-08T03:35:04;99333.22;;;8.07;58.27
40872;BME280;26591;43.264;26.940;2023-04-08T03:37:30;99334.75;;;8.00;58.33
40872;BME280;26591;43.264;26.940;2023-04-08T03:39:56;99335.59;;;8.01;58.60
40872;BME280;26591;43.264;26.940;2023-04-08T03:42:31;99335.44;;;8.02;58.29
40872;BME280;26591;43.264;26.940;2023-04-08T03:44:56;99338.34;;;8.09;58.04
40872;BME280;26591;43.264;26.940;2023-04-08T03:47:22;99337.22;;;8.12;57.89
40872;BME280;26591;43.264;26.940;2023-04-08T03:49:48;99343.31;;;8.22;58.05
40872;BME280;26591;43.264;26.940;2023-04-08T03:52:13;99341.53;;;8.13;58.74
40872;BME280;26591;43.264;26.940;2023-04-08T03:54:39;99339.41;;;8.26;58.85
40872;BME280;26591;43.264;26.940;2023-04-08T03:57:04;99343.41;;;8.40;58.38
40872;BME280;26591;43.264;26.940;2023-04-08T03:59:30;99350.47;;;8.39;58.60
40872;BME280;26591;43.264;26.940;2023-04-08T04:01:56;99342.91;;;8.17;58.85
40872;BME280;26591;43.264;26.940;2023-04-08T04:04:23;99347.34;;;8.16;58.83
40872;BME280;26591;43.264;26.940;2023-04-08T04:06:48;99344.22;;;7.93;60.02
40872;BME280;26591;43.264;26.940;2023-04-08T04:09:14;99346.28;;;7.89;59.62
40872;BME280;26591;43.264;26.940;2023-04-08T04:11:40;99348.91;;;8.09;59.18
40872;BME280;26591;43.264;26.940;2023-04-08T04:14:06;99351.94;;;8.14;60.03
40872;BME280;26591;43.264;26.940;2023-04-08T04:16:37;99356.34;;;8.23;59.71
40872;BME280;26591;43.264;26.940;2023-04-08T04:19:03;99362.88;;;8.09;59.36
40872;BME280;26591;43.264;26.940;2023-04-08T04:21:28;99365.53;;;8.09;59.19
40872;BME280;26591;43.264;26.940;2023-04-08T04:23:54;99372.72;;;8.27;59.22
40872;BME280;26591;43.264;26.940;2023-04-08T04:26:19;99366.09;;;8.13;59.47
40872;BME280;26591;43.264;26.940;2023-04-08T04:28:45;99366.66;;;7.87;59.69
40872;BME280;26591;43.264;26.940;2023-04-08T04:31:18;99370.59;;;7.63;61.07
40872;BME280;26591;43.264;26.940;2023-04-08T04:33:44;99370.31;;;7.57;61.53
40872;BME280;26591;43.264;26.940;2023-04-08T04:36:11;99371.09;;;7.18;61.96
40872;BME280;26591;43.264;26.940;2023-04-08T04:38:36;99376.03;;;7.01;63.96
40872;BME280;26591;43.264;26.940;2023-04-08T04:41:03;99371.06;;;6.98;64.56
40872;BME280;26591;43.264;26.940;2023-04-08T04:43:29;99376.31;;;6.89;65.33
40872;BME280;26591;43.264;26.940;2023-04-08T04:45:55;99370.44;;;6.75;65.38
40872;BME280;26591;43.264;26.940;2023-04-08T04:48:24;99377.69;;;6.93;66.07
40872;BME280;26591;43.264;26.940;2023-04-08T04:50:56;99378.47;;;7.44;64.47
40872;BME280;26591;43.264;26.940;2023-04-08T04:53:22;99375.16;;;7.52;64.68
40872;BME280;26591;43.264;26.940;2023-04-08T04:55:49;99371.16;;;7.47;64.12
40872;BME280;26591;43.264;26.940;2023-04-08T04:58:14;99374.63;;;7.68;64.37
40872;BME280;26591;43.264;26.940;2023-04-08T05:00:40;99378.22;;;7.76;63.42
40872;BME280;26591;43.264;26.940;2023-04-08T05:03:06;99383.59;;;7.85;63.97
40872;BME280;26591;43.264;26.940;2023-04-08T05:05:31;99385.25;;;7.37;65.00
40872;BME280;26591;43.264;26.940;2023-04-08T05:07:57;99386.09;;;7.27;65.45
40872;BME280;26591;43.264;26.940;2023-04-08T05:10:22;99387.22;;;7.44;65.41
40872;BME280;26591;43.264;26.940;2023-04-08T05:12:48;99380.53;;;7.30;66.21
40872;BME280;26591;43.264;26.940;2023-04-08T05:15:13;99393.00;;;7.18;67.51
40872;BME280;26591;43.264;26.940;2023-04-08T05:17:39;99393.63;;;6.91;68.96
40872;BME280;26591;43.264;26.940;2023-04-08T05:20:05;99390.22;;;7.20;68.33
40872;BME280;26591;43.264;26.940;2023-04-08T05:22:30;99393.84;;;7.29;67.95
40872;BME280;26591;43.264;26.940;2023-04-08T05:24:56;99387.91;;;7.46;67.35
40872;BME280;26591;43.264;26.940;2023-04-08T05:27:21;99397.63;;;7.56;67.52
40872;BME280;26591;43.264;26.940;2023-04-08T05:29:47;99396.22;;;7.71;66.89
40872;BME280;26591;43.264;26.940;2023-04-08T05:32:13;99398.28;;;7.87;66.04
40872;BME280;26591;43.264;26.940;2023-04-08T05:34:38;99398.88;;;7.91;66.70
40872;BME280;26591;43.264;26.940;2023-04-08T05:37:03;99401.50;;;7.91;66.61
40872;BME280;26591;43.264;26.940;2023-04-08T05:39:29;99403.88;;;7.94;66.25
40872;BME280;26591;43.264;26.940;2023-04-08T05:41:55;99404.56;;;7.86;65.27
40872;BME280;26591;43.264;26.940;2023-04-08T05:44:20;99405.22;;;8.08;64.52
40872;BME280;26591;43.264;26.940;2023-04-08T05:46:46;99401.34;;;8.02;64.22
40872;BME280;26591;43.264;26.940;2023-04-08T05:49:11;99401.19;;;8.04;64.18
40872;BME280;26591;43.264;26.940;2023-04-08T05:51:38;99407.59;;;8.01;63.97
40872;BME280;26591;43.264;26.940;2023-04-08T05:54:04;99394.56;;;7.70;64.01
40872;BME280;26591;43.264;26.940;2023-04-08T05:56:29;99402.66;;;6.98;65.78
40872;BME280;26591;43.264;26.940;2023-04-08T05:58:56;99408.94;;;7.27;65.74
40872;BME280;26591;43.264;26.940;2023-04-08T06:01:22;99404.94;;;7.42;65.46
40872;BME280;26591;43.264;26.940;2023-04-08T06:03:47;99407.59;;;7.42;63.83
40872;BME280;26591;43.264;26.940;2023-04-08T06:06:13;99408.00;;;7.38;63.83
40872;BME280;26591;43.264;26.940;2023-04-08T06:08:39;99408.78;;;7.28;64.23
40872;BME280;26591;43.264;26.940;2023-04-08T06:11:04;99415.13;;;6.96;65.37
40872;BME280;26591;43.264;26.940;2023-04-08T06:13:30;99408.63;;;6.69;66.00
40872;BME280;26591;43.264;26.940;2023-04-08T06:15:56;99406.72;;;6.81;66.79
40872;BME280;26591;43.264;26.940;2023-04-08T06:18:22;99418.50;;;7.28;65.41
40872;BME280;26591;43.264;26.940;2023-04-08T06:20:47;99414.19;;;7.17;65.33
40872;BME280;26591;43.264;26.940;2023-04-08T06:23:18;99415.91;;;7.57;64.57
40872;BME280;26591;43.264;26.940;2023-04-08T06:25:46;99411.63;;;7.76;63.65
40872;BME280;26591;43.264;26.940;2023-04-08T06:28:12;99409.13;;;7.64;64.01
40872;BME280;26591;43.264;26.940;2023-04-08T06:30:37;99402.72;;;7.38;64.14
40872;BME280;26591;43.264;26.940;2023-04-08T06:33:03;99419.31;;;7.28;64.75
40872;BME280;26591;43.264;26.940;2023-04-08T06:35:28;99406.19;;;7.87;64.25
40872;BME280;26591;43.264;26.940;2023-04-08T06:37:54;99409.41;;;8.01;63.40
40872;BME280;26591;43.264;26.940;2023-04-08T06:40:19;99406.78;;;8.01;61.78
40872;BME280;26591;43.264;26.940;2023-04-08T06:42:45;99410.66;;;7.97;62.15
40872;BME280;26591;43.264;26.940;2023-04-08T06:45:10;99401.28;;;8.32;61.92
40872;BME280;26591;43.264;26.940;2023-04-08T06:47:37;99399.69;;;8.11;61.53
40872;BME280;26591;43.264;26.940;2023-04-08T06:50:02;99403.25;;;8.30;62.27
40872;BME280;26591;43.264;26.940;2023-04-08T06:52:28;99396.78;;;7.94;61.02
40872;BME280;26591;43.264;26.940;2023-04-08T06:54:56;99398.28;;;8.07;61.38
40872;BME280;26591;43.264;26.940;2023-04-08T06:57:21;99394.75;;;8.36;60.62
40872;BME280;26591;43.264;26.940;2023-04-08T06:59:46;99399.81;;;8.67;60.13
40872;BME280;26591;43.264;26.940;2023-04-08T07:02:12;99393.53;;;8.78;59.63
40872;BME280;26591;43.264;26.940;2023-04-08T07:04:37;99404.09;;;8.78;58.99
40872;BME280;26591;43.264;26.940;2023-04-08T07:07:03;99401.97;;;8.53;59.58
40872;BME280;26591;43.264;26.940;2023-04-08T07:09:28;99405.53;;;8.62;59.91
40872;BME280;26591;43.264;26.940;2023-04-08T07:11:54;99404.19;;;8.48;60.53
40872;BME280;26591;43.264;26.940;2023-04-08T07:14:20;99401.78;;;8.93;59.18
40872;BME280;26591;43.264;26.940;2023-04-08T07:16:45;99407.47;;;8.98;58.55
40872;BME280;26591;43.264;26.940;2023-04-08T07:19:10;99407.66;;;9.14;58.21
40872;BME280;26591;43.264;26.940;2023-04-08T07:21:36;99416.75;;;9.30;58.08
40872;BME280;26591;43.264;26.940;2023-04-08T07:24:01;99419.69;;;9.45;57.61
40872;BME280;26591;43.264;26.940;2023-04-08T07:26:27;99421.63;;;9.25;57.71
40872;BME280;26591;43.264;26.940;2023-04-08T07:28:52;99421.75;;;9.05;58.72
40872;BME280;26591;43.264;26.940;2023-04-08T07:31:18;99423.59;;;9.69;58.17
40872;BME280;26591;43.264;26.940;2023-04-08T07:34:09;99431.66;;;9.67;57.72
40872;BME280;26591;43.264;26.940;2023-04-08T07:36:34;99426.28;;;9.59;58.43
40872;BME280;26591;43.264;26.940;2023-04-08T07:39:00;99438.16;;;9.91;57.99
40872;BME280;26591;43.264;26.940;2023-04-08T07:41:25;99439.50;;;9.59;58.27
40872;BME280;26591;43.264;26.940;2023-04-08T07:47:07;99434.97;;;9.51;58.86
40872;BME280;26591;43.264;26.940;2023-04-08T07:49:33;99434.50;;;9.74;58.61
40872;BME280;26591;43.264;26.940;2023-04-08T07:51:58;99443.06;;;9.68;58.82
40872;BME280;26591;43.264;26.940;2023-04-08T07:54:24;99441.03;;;9.98;58.08
40872;BME280;26591;43.264;26.940;2023-04-08T07:56:50;99444.88;;;10.03;58.14
40872;BME280;26591;43.264;26.940;2023-04-08T07:59:15;99444.72;;;9.69;58.59
40872;BME280;26591;43.264;26.940;2023-04-08T08:01:41;99439.72;;;9.84;58.45
40872;BME280;26591;43.264;26.940;2023-04-08T08:04:07;99437.78;;;10.30;58.27
40872;BME280;26591;43.264;26.940;2023-04-08T08:06:32;99443.13;;;10.57;57.15
40872;BME280;26591;43.264;26.940;2023-04-08T08:08:58;99443.47;;;10.88;56.38
40872;BME280;26591;43.264;26.940;2023-04-08T08:11:27;99444.78;;;11.27;55.48
40872;BME280;26591;43.264;26.940;2023-04-08T08:13:53;99448.63;;;11.41;54.76
40872;BME280;26591;43.264;26.940;2023-04-08T08:16:18;99440.66;;;11.41;54.19
40872;BME280;26591;43.264;26.940;2023-04-08T08:18:44;99429.25;;;11.49;54.34
40872;BME280;26591;43.264;26.940;2023-04-08T08:21:09;99435.72;;;11.54;54.29
40872;BME280;26591;43.264;26.940;2023-04-08T08:23:35;99436.94;;;11.85;53.18
40872;BME280;26591;43.264;26.940;2023-04-08T08:26:07;99433.13;;;11.87;53.67
40872;BME280;26591;43.264;26.940;2023-04-08T08:28:34;99434.28;;;11.85;54.32
40872;BME280;26591;43.264;26.940;2023-04-08T08:31:00;99435.94;;;11.61;53.27
40872;BME280;26591;43.264;26.940;2023-04-08T08:33:26;99443.00;;;11.36;54.35
40872;BME280;26591;43.264;26.940;2023-04-08T08:35:52;99447.47;;;11.43;53.98
40872;BME280;26591;43.264;26.940;2023-04-08T08:38:17;99442.28;;;11.25;54.75
40872;BME280;26591;43.264;26.940;2023-04-08T08:40:43;99446.19;;;11.56;54.66
40872;BME280;26591;43.264;26.940;2023-04-08T08:43:11;99435.63;;;11.97;53.29
40872;BME280;26591;43.264;26.940;2023-04-08T08:45:41;99433.97;;;12.21;53.55
40872;BME280;26591;43.264;26.940;2023-04-08T08:48:07;99433.16;;;12.20;53.06
40872;BME280;26591;43.264;26.940;2023-04-08T08:50:35;99434.16;;;12.19;52.89
40872;BME280;26591;43.264;26.940;2023-04-08T08:53:01;99432.81;;;12.40;52.75
40872;BME280;26591;43.264;26.940;2023-04-08T08:55:30;99434.94;;;12.53;53.03
40872;BME280;26591;43.264;26.940;2023-04-08T08:57:56;99429.16;;;12.97;52.89
40872;BME280;26591;43.264;26.940;2023-04-08T09:00:40;99443.25;;;12.58;52.59
40872;BME280;26591;43.264;26.940;2023-04-08T09:05:51;99426.41;;;13.22;51.53
40872;BME280;26591;43.264;26.940;2023-04-08T09:08:35;99431.44;;;13.49;50.92
40872;BME280;26591;43.264;26.940;2023-04-08T09:11:19;99432.53;;;12.91;52.89
40872;BME280;26591;43.264;26.940;2023-04-08T09:13:48;99430.44;;;13.10;51.61
40872;BME280;26591;43.264;26.940;2023-04-08T09:16:15;99433.72;;;12.80;52.14
40872;BME280;26591;43.264;26.940;2023-04-08T09:18:45;99426.88;;;12.86;52.17
40872;BME280;26591;43.264;26.940;2023-04-08T09:21:13;99427.03;;;12.93;51.95
40872;BME280;26591;43.264;26.940;2023-04-08T09:26:20;99430.72;;;12.75;53.19
40872;BME280;26591;43.264;26.940;2023-04-08T09:29:07;99412.00;;;12.77;52.41
40872;BME280;26591;43.264;26.940;2023-04-08T09:31:37;99415.00;;;13.13;51.67
40872;BME280;26591;43.264;26.940;2023-04-08T09:34:13;99410.16;;;13.17;51.65
40872;BME280;26591;43.264;26.940;2023-04-08T09:36:40;99403.09;;;13.33;52.21
40872;BME280;26591;43.264;26.940;2023-04-08T09:39:08;99405.34;;;13.52;51.28
40872;BME280;26591;43.264;26.940;2023-04-08T09:41:35;99405.19;;;13.14;52.56
40872;BME280;26591;43.264;26.940;2023-04-08T09:44:06;99397.53;;;12.79;53.19
40872;BME280;26591;43.264;26.940;2023-04-08T09:46:39;99400.88;;;13.91;52.36
40872;BME280;26591;43.264;26.940;2023-04-08T09:49:25;99393.69;;;14.83;49.67
40872;BME280;26591;43.264;26.940;2023-04-08T09:52:14;99396.59;;;14.58;49.91
40872;BME280;26591;43.264;26.940;2023-04-08T09:54:46;99399.53;;;14.33;50.12
40872;BME280;26591;43.264;26.940;2023-04-08T09:57:16;99399.53;;;14.93;49.53
40872;BME280;26591;43.264;26.940;2023-04-08T09:59:51;99399.25;;;15.18;47.91
40872;BME280;26591;43.264;26.940;2023-04-08T10:02:28;99401.94;;;14.58;48.71
40872;BME280;26591;43.264;26.940;2023-04-08T10:04:57;99404.13;;;14.40;49.30
40872;BME280;26591;43.264;26.940;2023-04-08T10:07:24;99396.50;;;14.97;47.48
40872;BME280;26591;43.264;26.940;2023-04-08T10:09:50;99393.34;;;15.45;46.90
40872;BME280;26591;43.264;26.940;2023-04-08T10:12:16;99391.16;;;15.12;48.39
40872;BME280;26591;43.264;26.940;2023-04-08T10:14:41;99395.97;;;14.71;48.84
40872;BME280;26591;43.264;26.940;2023-04-08T10:17:26;99387.28;;;15.14;47.56
40872;BME280;26591;43.264;26.940;2023-04-08T10:19:53;99387.09;;;15.74;45.79
40872;BME280;26591;43.264;26.940;2023-04-08T10:27:40;99383.13;;;15.26;45.66
40872;BME280;26591;43.264;26.940;2023-04-08T10:32:55;99386.22;;;14.93;46.28
40872;BME280;26591;43.264;26.940;2023-04-08T10:35:33;99377.28;;;15.01;45.91
40872;BME280;26591;43.264;26.940;2023-04-08T10:38:00;99381.81;;;15.37;45.83
40872;BME280;26591;43.264;26.940;2023-04-08T10:40:26;99372.44;;;15.85;44.10
40872;BME280;26591;43.264;26.940;2023-04-08T10:42:58;99376.97;;;15.26;45.74
40872;BME280;26591;43.264;26.940;2023-04-08T10:45:24;99380.81;;;15.02;45.89
40872;BME280;26591;43.264;26.940;2023-04-08T10:47:50;99382.75;;;15.30;46.02
40872;BME280;26591;43.264;26.940;2023-04-08T10:50:18;99376.25;;;15.97;44.87
40872;BME280;26591;43.264;26.940;2023-04-08T10:52:51;99381.13;;;15.50;43.97
40872;BME280;26591;43.264;26.940;2023-04-08T10:55:24;99375.78;;;15.29;45.45
40872;BME280;26591;43.264;26.940;2023-04-08T10:57:53;99385.50;;;15.00;45.44
40872;BME280;26591;43.264;26.940;2023-04-08T11:00:31;99366.41;;;15.18;45.67
40872;BME280;26591;43.264;26.940;2023-04-08T11:03:02;99366.88;;;15.43;44.70
40872;BME280;26591;43.264;26.940;2023-04-08T11:05:28;99363.34;;;16.29;44.39
40872;BME280;26591;43.264;26.940;2023-04-08T11:07:53;99370.41;;;15.87;44.30
40872;BME280;26591;43.264;26.940;2023-04-08T11:10:20;99366.09;;;16.14;44.31
40872;BME280;26591;43.264;26.940;2023-04-08T11:12:46;99359.66;;;16.30;43.02
40872;BME280;26591;43.264;26.940;2023-04-08T11:15:12;99365.72;;;16.17;42.97
40872;BME280;26591;43.264;26.940;2023-04-08T11:17:38;99358.16;;;16.56;43.01
40872;BME280;26591;43.264;26.940;2023-04-08T11:20:04;99352.00;;;16.62;42.86
40872;BME280;26591;43.264;26.940;2023-04-08T11:22:31;99350.59;;;17.08;42.08
40872;BME280;26591;43.264;26.940;2023-04-08T11:24:59;99355.34;;;16.78;42.20
40872;BME280;26591;43.264;26.940;2023-04-08T11:27:25;99346.22;;;16.59;41.72
40872;BME280;26591;43.264;26.940;2023-04-08T11:29:54;99343.88;;;16.84;40.90
40872;BME280;26591;43.264;26.940;2023-04-08T11:32:21;99332.66;;;17.02;40.79
40872;BME280;26591;43.264;26.940;2023-04-08T11:34:48;99341.66;;;16.46;40.99
40872;BME280;26591;43.264;26.940;2023-04-08T11:37:14;99337.78;;;16.20;41.29
40872;BME280;26591;43.264;26.940;2023-04-08T11:39:43;99332.06;;;16.58;41.45
40872;BME280;26591;43.264;26.940;2023-04-08T11:42:28;99328.69;;;16.91;40.59
40872;BME280;26591;43.264;26.940;2023-04-08T11:44:54;99327.72;;;17.06;40.08
40872;BME280;26591;43.264;26.940;2023-04-08T11:47:19;99329.41;;;17.14;40.68
40872;BME280;26591;43.264;26.940;2023-04-08T11:49:47;99335.06;;;16.13;39.66
40872;BME280;26591;43.264;26.940;2023-04-08T11:52:13;99327.31;;;16.19;40.43
40872;BME280;26591;43.264;26.940;2023-04-08T11:54:42;99324.13;;;15.80;40.87
40872;BME280;26591;43.264;26.940;2023-04-08T11:57:08;99322.03;;;16.32;40.11
40872;BME280;26591;43.264;26.940;2023-04-08T11:59:35;99319.69;;;16.99;39.96
40872;BME280;26591;43.264;26.940;2023-04-08T12:02:01;99324.69;;;17.29;39.39
40872;BME280;26591;43.264;26.940;2023-04-08T12:04:27;99313.97;;;17.22;38.59
40872;BME280;26591;43.264;26.940;2023-04-08T12:06:53;99315.56;;;16.13;43.93
40872;BME280;26591;43.264;26.940;2023-04-08T12:09:18;99325.41;;;15.84;45.17
40872;BME280;26591;43.264;26.940;2023-04-08T12:11:44;99318.38;;;15.54;45.65
40872;BME280;26591;43.264;26.940;2023-04-08T12:14:09;99321.22;;;15.31;46.05
40872;BME280;26591;43.264;26.940;2023-04-08T12:16:35;99329.25;;;14.94;46.70
40872;BME280;26591;43.264;26.940;2023-04-08T12:19:00;99313.69;;;14.16;48.18
40872;BME280;26591;43.264;26.940;2023-04-08T12:21:26;99326.25;;;14.53;47.53
40872;BME280;26591;43.264;26.940;2023-04-08T12:23:52;99302.56;;;14.28;48.44
40872;BME280;26591;43.264;26.940;2023-04-08T12:26:18;99293.66;;;14.21;47.28
40872;BME280;26591;43.264;26.940;2023-04-08T12:29:12;99304.59;;;14.11;47.45
40872;BME280;26591;43.264;26.940;2023-04-08T12:31:37;99299.97;;;14.04;47.15
40872;BME280;26591;43.264;26.940;2023-04-08T12:34:12;99295.19;;;14.60;45.15
40872;BME280;26591;43.264;26.940;2023-04-08T12:36:37;99287.78;;;14.55;47.35
40872;BME280;26591;43.264;26.940;2023-04-08T12:39:03;99294.94;;;14.70;46.25
40872;BME280;26591;43.264;26.940;2023-04-08T12:41:28;99285.06;;;14.33;47.30
40872;BME280;26591;43.264;26.940;2023-04-08T12:43:58;99289.34;;;14.19;47.22
40872;BME280;26591;43.264;26.940;2023-04-08T12:46:25;99281.81;;;13.78;47.64
40872;BME280;26591;43.264;26.940;2023-04-08T12:48:50;99291.19;;;14.04;47.40
40872;BME280;26591;43.264;26.940;2023-04-08T12:51:16;99284.41;;;14.01;46.96
40872;BME280;26591;43.264;26.940;2023-04-08T12:53:42;99284.94;;;14.27;46.47
40872;BME280;26591;43.264;26.940;2023-04-08T12:56:07;99286.97;;;14.55;46.23
40872;BME280;26591;43.264;26.940;2023-04-08T12:58:33;99282.09;;;14.58;46.09
40872;BME280;26591;43.264;26.940;2023-04-08T13:00:58;99283.19;;;14.49;46.46
40872;BME280;26591;43.264;26.940;2023-04-08T13:03:24;99290.38;;;14.18;47.11
40872;BME280;26591;43.264;26.940;2023-04-08T13:05:51;99279.41;;;14.43;46.76
40872;BME280;26591;43.264;26.940;2023-04-08T13:08:16;99282.91;;;13.99;48.02
40872;BME280;26591;43.264;26.940;2023-04-08T13:10:42;99279.72;;;14.33;48.14
40872;BME280;26591;43.264;26.940;2023-04-08T13:13:07;99290.47;;;14.40;47.32
40872;BME280;26591;43.264;26.940;2023-04-08T13:15:33;99283.03;;;14.21;47.54